Time;durP1;ratioP1;P1;durP2;ratioP2;P2;SDS_P1;SDS_P2;PMS_P1;PMS_P2;Temp;Humidity;BMP_temperature;BMP_pressure;BME280_temperature;BME280_humidity;BME280_pressure;Samples;Min_cycle;Max_cycle;Signal;HPM_P1;HPM_P2
2022/11/28 00:01:22;;;;;;;21.35;8.90;;;;;;;-1.17;81.92;101450.81;4984711;28;20037;-49
2022/11/28 00:03:50;;;;;;;19.70;8.57;;;;;;;-1.34;82.22;101421.19;4992692;28;20498;-50
2022/11/28 00:06:17;;;;;;;21.65;8.48;;;;;;;-1.21;82.29;101445.53;4996726;28;20042;-48
2022/11/28 00:08:43;;;;;;;21.45;9.23;;;;;;;-1.22;82.41;101446.34;4953540;28;20088;-47
2022/11/28 00:11:10;;;;;;;23.38;8.27;;;;;;;-1.20;82.20;101439.63;4942006;28;20042;-48
2022/11/28 00:13:37;;;;;;;21.08;8.75;;;;;;;-1.19;82.65;101438.78;4993136;28;20033;-49
2022/11/28 00:16:04;;;;;;;18.02;6.85;;;;;;;-1.34;82.65;101423.72;5003433;28;20045;-52
2022/11/28 00:18:30;;;;;;;19.38;7.90;;;;;;;-1.20;82.43;101447.28;5008547;28;20038;-49
2022/11/28 00:21:00;;;;;;;20.80;8.82;;;;;;;-1.23;82.74;101440.34;5005842;28;20052;-49
2022/11/28 00:23:27;;;;;;;18.10;7.57;;;;;;;-1.20;82.95;101444.72;4993369;28;20148;-49
2022/11/28 00:26:04;;;;;;;21.95;8.20;;;;;;;-1.21;82.98;101440.44;5001109;28;20046;-47
2022/11/28 00:28:30;;;;;;;24.70;8.52;;;;;;;-1.24;82.91;101440.28;5008424;28;20547;-49
2022/11/28 00:30:58;;;;;;;21.45;8.93;;;;;;;-1.18;83.19;101443.09;5004217;28;20054;-50
2022/11/28 00:33:24;;;;;;;20.70;8.90;;;;;;;-1.14;83.34;101444.97;4987544;28;20060;-48
2022/11/28 00:35:50;;;;;;;21.20;8.57;;;;;;;-1.11;83.36;101434.88;4991408;28;20041;-49
2022/11/28 00:38:16;;;;;;;21.48;8.57;;;;;;;-1.23;83.39;101413.97;5005883;28;20046;-47
2022/11/28 00:40:42;;;;;;;19.77;8.50;;;;;;;-1.06;83.33;101431.72;4988856;28;20425;-48
2022/11/28 00:43:08;;;;;;;22.20;9.48;;;;;;;-1.06;83.36;101428.28;4996697;28;20053;-49
2022/11/28 00:45:33;;;;;;;22.50;8.70;;;;;;;-1.14;83.51;101439.84;4987293;28;20050;-49
2022/11/28 00:47:59;;;;;;;18.63;8.52;;;;;;;-1.13;83.38;101439.03;4992538;28;20139;-51
2022/11/28 00:50:25;;;;;;;23.17;8.75;;;;;;;-1.12;83.52;101430.59;5008511;28;20041;-49
2022/11/28 00:52:52;;;;;;;21.67;8.20;;;;;;;-1.12;83.65;101436.56;4991481;28;20479;-48
2022/11/28 00:55:18;;;;;;;20.85;8.70;;;;;;;-1.06;83.93;101428.28;5007402;28;20052;-45
2022/11/28 00:57:45;;;;;;;20.55;9.30;;;;;;;-1.26;83.73;101401.97;4997409;28;20093;-50
2022/11/28 01:00:14;;;;;;;23.20;8.45;;;;;;;-1.10;83.86;101426.44;4989784;28;20042;-46
2022/11/28 01:02:40;;;;;;;23.77;9.27;;;;;;;-1.10;83.74;101426.44;4998943;28;20418;-54
2022/11/28 01:05:06;;;;;;;20.65;8.48;;;;;;;-1.09;83.88;101431.56;5008819;28;20038;-47
2022/11/28 01:07:32;;;;;;;24.52;8.70;;;;;;;-1.13;83.87;101434.81;5008434;28;20056;-50
2022/11/28 01:09:58;;;;;;;22.65;8.88;;;;;;;-1.11;84.38;101435.75;4994988;28;20530;-47
2022/11/28 01:12:24;;;;;;;18.83;8.35;;;;;;;-1.27;83.97;101407.00;4995317;28;20042;-47
2022/11/28 01:14:50;;;;;;;24.50;8.60;;;;;;;-1.12;84.18;101428.91;5008408;28;20421;-47
2022/11/28 01:17:16;;;;;;;23.50;8.85;;;;;;;-1.37;84.06;101393.00;5007040;28;20516;-47
2022/11/28 01:19:41;;;;;;;21.05;8.70;;;;;;;-1.12;84.33;101428.03;5009363;28;20390;-47
2022/11/28 01:22:07;;;;;;;23.05;9.73;;;;;;;-1.28;84.39;101403.56;4996832;28;20108;-49
2022/11/28 01:24:33;;;;;;;20.25;9.05;;;;;;;-1.14;84.45;101427.09;5023431;28;20042;-49
2022/11/28 01:26:59;;;;;;;19.08;8.27;;;;;;;-1.15;84.12;101426.22;5008407;28;20073;-47
2022/11/28 01:29:25;;;;;;;22.33;9.05;;;;;;;-1.19;84.69;101433.69;4992121;28;20048;-47
2022/11/28 01:31:51;;;;;;;18.83;8.77;;;;;;;-1.22;84.88;101426.81;4989147;28;20046;-45
2022/11/28 01:34:17;;;;;;;19.17;9.27;;;;;;;-1.14;85.03;101427.09;5007838;28;20048;-46
2022/11/28 01:36:43;;;;;;;18.67;7.90;;;;;;;-1.15;84.97;101435.59;5007994;28;20505;-47
2022/11/28 01:39:11;;;;;;;20.77;8.52;;;;;;;-1.17;85.00;101435.50;5002944;28;20050;-46
2022/11/28 01:41:38;;;;;;;24.65;10.18;;;;;;;-1.30;85.07;101407.72;4972368;28;20474;-45
2022/11/28 01:44:26;;;;;;;18.27;8.43;;;;;;;-1.13;85.07;101436.50;5007450;28;20049;-50
2022/11/28 01:46:52;;;;;;;17.02;7.85;;;;;;;-1.14;84.68;101437.28;5011512;28;20675;-52
2022/11/28 01:49:30;;;;;;;20.65;8.63;;;;;;;-1.27;84.90;101407.88;5010343;28;20045;-47
2022/11/28 01:52:00;;;;;;;20.02;8.23;;;;;;;-1.14;84.82;101429.63;5012544;28;20041;-46
2022/11/28 01:54:30;;;;;;;18.48;7.80;;;;;;;-1.17;85.02;101437.19;5010837;28;20038;-50
2022/11/28 01:56:58;;;;;;;19.83;9.07;;;;;;;-1.24;84.84;101430.97;4992429;28;20092;-49
2022/11/28 01:59:27;;;;;;;17.92;8.15;;;;;;;-1.38;84.92;101404.88;4990654;28;20038;-50
2022/11/28 02:01:53;;;;;;;20.98;8.43;;;;;;;-1.24;85.19;101437.72;4994955;28;20034;-53
2022/11/28 02:04:19;;;;;;;17.35;8.13;;;;;;;-1.26;84.90;101437.69;5008746;28;20045;-50
2022/11/28 02:06:47;;;;;;;17.63;8.13;;;;;;;-1.39;84.84;101426.09;5012395;28;20544;-51
2022/11/28 02:09:15;;;;;;;18.45;8.40;;;;;;;-1.35;85.22;101435.63;4991814;28;20046;-49
2022/11/28 02:11:41;;;;;;;17.55;8.23;;;;;;;-1.36;84.77;101444.06;5010755;28;20033;-50
2022/11/28 02:14:42;;;;;;;19.23;8.27;;;;;;;-1.35;85.30;101444.94;5011360;28;20052;-47
2022/11/28 02:17:14;;;;;;;15.18;7.40;;;;;;;-1.36;85.24;101453.44;4988619;28;20402;-47
2022/11/28 02:19:43;;;;;;;22.48;8.25;;;;;;;-1.44;84.65;101459.88;4984946;28;20082;-46
2022/11/28 02:22:18;;;;;;;20.20;8.20;;;;;;;-1.49;84.91;101467.34;4993964;28;20078;-48
2022/11/28 02:24:53;;;;;;;18.27;8.27;;;;;;;-1.47;84.96;101465.72;5002820;28;20178;-51
2022/11/28 02:27:37;;;;;;;17.30;8.35;;;;;;;-1.45;84.83;101456.44;4992363;28;20046;-50
2022/11/28 02:30:26;;;;;;;18.17;8.70;;;;;;;-1.44;84.90;101455.66;5019774;28;20038;-47
2022/11/28 02:33:04;;;;;;;19.25;8.98;;;;;;;-1.46;84.56;101456.38;5008873;28;20065;-48
2022/11/28 02:35:55;;;;;;;19.70;8.32;;;;;;;-1.44;84.73;101470.06;5010599;28;20071;-50
2022/11/28 02:38:39;;;;;;;19.90;9.10;;;;;;;-1.55;84.44;101476.41;4990227;28;20530;-45
2022/11/28 02:41:14;;;;;;;18.30;8.07;;;;;;;-1.76;84.65;101477.22;4996597;28;20049;-50
2022/11/28 02:43:44;;;;;;;14.10;6.00;;;;;;;-1.86;84.98;101472.50;5006818;28;20042;-55
2022/11/28 02:46:14;;;;;;;11.32;5.55;;;;;;;-1.82;84.95;101474.38;4990398;28;20053;-50
2022/11/28 02:48:52;;;;;;;12.02;5.65;;;;;;;-1.80;84.76;101482.13;5007744;28;20136;-53
2022/11/28 02:51:26;;;;;;;9.32;5.15;;;;;;;-1.87;84.75;101477.53;5001049;28;20176;-51
2022/11/28 02:53:52;;;;;;;9.18;5.03;;;;;;;-1.90;84.67;101479.97;4993177;28;20581;-48
2022/11/28 02:56:18;;;;;;;9.77;4.70;;;;;;;-2.02;84.46;101485.38;4987107;28;20050;-49
2022/11/28 02:58:47;;;;;;;9.95;5.40;;;;;;;-2.02;84.92;101487.06;5009851;28;20532;-49
2022/11/28 03:01:17;;;;;;;8.35;4.93;;;;;;;-2.05;84.36;101495.44;5009744;28;20041;-50
2022/11/28 03:04:25;;;;;;;12.25;5.78;;;;;;;-2.23;84.08;101489.50;4989538;28;20469;-47
2022/11/28 03:07:13;;;;;;;10.32;5.32;;;;;;;-2.32;84.37;101496.72;4942206;29;20059;-47
2022/11/28 03:09:46;;;;;;;13.25;5.60;;;;;;;-2.25;84.15;101497.06;4918557;29;20455;-46
2022/11/28 03:12:33;;;;;;;9.43;4.85;;;;;;;-2.30;83.79;101490.88;4932226;29;20146;-46
2022/11/28 03:15:04;;;;;;;9.75;4.65;;;;;;;-2.23;83.74;101486.94;4950474;29;20039;-46
2022/11/28 03:17:31;;;;;;;11.90;5.57;;;;;;;-2.15;83.66;101496.69;4938032;29;20051;-49
2022/11/28 03:20:22;;;;;;;9.55;5.20;;;;;;;-2.10;83.11;101502.00;4934224;29;20047;-49
2022/11/28 03:22:59;;;;;;;11.20;5.25;;;;;;;-2.06;83.00;101503.88;4932919;29;20043;-51
2022/11/28 03:25:45;;;;;;;12.05;5.35;;;;;;;-2.17;82.75;101480.47;4932529;29;20047;-47
2022/11/28 03:28:40;;;;;;;12.05;5.18;;;;;;;-2.16;82.46;101502.59;4938297;29;20079;-46
2022/11/28 03:31:16;;;;;;;10.52;5.15;;;;;;;-2.22;82.16;101484.47;4945860;29;20051;-47
2022/11/28 03:34:01;;;;;;;10.15;5.22;;;;;;;-2.05;82.13;101504.75;4933361;29;20046;-50
2022/11/28 03:36:51;;;;;;;8.90;4.93;;;;;;;-2.04;81.96;101514.16;4939359;29;20155;-50
2022/11/28 03:39:20;;;;;;;9.18;4.88;;;;;;;-2.08;81.63;101508.03;4946512;29;20056;-47
2022/11/28 03:41:51;;;;;;;9.90;4.38;;;;;;;-2.07;81.49;101506.34;4946253;29;20075;-46
2022/11/28 03:44:28;;;;;;;11.75;5.32;;;;;;;-2.05;81.28;101509.88;4972699;28;20046;-52
2022/11/28 03:46:56;;;;;;;6.75;4.50;;;;;;;-2.07;81.02;101511.47;4989887;28;20040;-48
2022/11/28 03:49:28;;;;;;;10.40;4.93;;;;;;;-2.07;80.87;101521.66;5003494;28;20046;-47
2022/11/28 03:52:06;;;;;;;11.75;5.65;;;;;;;-2.10;80.79;101524.94;4989412;28;20066;-51
2022/11/28 03:54:33;;;;;;;10.80;5.88;;;;;;;-2.09;80.89;101516.47;5006024;28;20064;-47
2022/11/28 03:57:11;;;;;;;11.10;5.68;;;;;;;-2.02;80.47;101522.72;4989144;28;20050;-47
2022/11/28 03:59:49;;;;;;;12.38;6.20;;;;;;;-1.93;80.75;101526.56;5005173;28;20038;-45
2022/11/28 04:02:18;;;;;;;14.70;6.95;;;;;;;-1.92;80.37;101530.00;5004635;28;20042;-46
2022/11/28 04:05:04;;;;;;;13.63;6.33;;;;;;;-1.95;80.55;101527.31;4996526;28;20049;-45
2022/11/28 04:07:38;;;;;;;12.13;6.18;;;;;;;-1.94;80.21;101526.50;5004469;28;20045;-50
2022/11/28 04:10:25;;;;;;;14.98;6.70;;;;;;;-1.94;80.31;101537.59;5000453;28;20039;-48
2022/11/28 04:12:59;;;;;;;13.35;6.72;;;;;;;-2.26;79.90;101476.63;5003898;28;20033;-48
2022/11/28 04:15:32;;;;;;;13.35;6.50;;;;;;;-1.93;80.34;101534.22;5003327;28;20046;-47
2022/11/28 04:18:19;;;;;;;13.65;6.65;;;;;;;-1.94;80.30;101536.72;4988820;28;20042;-49
2022/11/28 04:20:59;;;;;;;15.52;7.20;;;;;;;-1.98;80.24;101534.81;4990606;28;20039;-49
2022/11/28 04:23:26;;;;;;;15.60;6.78;;;;;;;-1.96;80.19;101533.22;5006704;28;20038;-48
2022/11/28 04:25:56;;;;;;;15.98;7.70;;;;;;;-2.20;80.28;101500.69;4988757;28;20070;-53
2022/11/28 04:28:24;;;;;;;15.63;7.38;;;;;;;-2.05;80.40;101530.25;4989411;28;20514;-48
2022/11/28 04:30:51;;;;;;;18.27;7.85;;;;;;;-2.04;80.44;101529.47;5008275;28;20049;-48
2022/11/28 04:33:19;;;;;;;19.38;7.93;;;;;;;-2.00;80.59;101539.84;5006716;28;20038;-50
2022/11/28 04:35:49;;;;;;;13.82;7.10;;;;;;;-1.99;80.48;101526.28;5008047;28;20433;-50
2022/11/28 04:38:15;;;;;;;17.02;7.20;;;;;;;-1.95;80.38;101535.84;4987025;28;20034;-49
2022/11/28 04:40:50;;;;;;;15.55;7.18;;;;;;;-1.96;80.54;101543.41;5006429;28;20065;-52
2022/11/28 04:43:20;;;;;;;15.82;7.28;;;;;;;-1.98;80.93;101550.09;4971803;28;20038;-47
2022/11/28 04:45:52;;;;;;;15.32;7.18;;;;;;;-2.01;80.56;101545.75;4990281;28;20072;-49
2022/11/28 04:48:18;;;;;;;16.05;7.38;;;;;;;-2.11;80.62;101546.13;4987556;28;20133;-50
2022/11/28 04:51:20;;;;;;;16.13;6.93;;;;;;;-2.11;80.76;101553.78;5005042;28;20075;-51
2022/11/28 04:53:49;;;;;;;14.48;6.80;;;;;;;-2.14;80.54;101556.16;4990015;28;20062;-48
2022/11/28 04:56:26;;;;;;;16.17;6.80;;;;;;;-2.31;80.83;101529.91;5006828;28;20049;-47
2022/11/28 04:58:52;;;;;;;17.52;8.10;;;;;;;-2.10;80.80;101557.19;4987552;28;20060;-49
2022/11/28 05:01:22;;;;;;;20.33;8.10;;;;;;;-2.10;80.83;101552.09;5002932;28;20514;-46
2022/11/28 05:03:48;;;;;;;15.23;7.15;;;;;;;-2.06;80.79;101553.97;5007763;28;20134;-48
2022/11/28 05:06:32;;;;;;;14.02;6.93;;;;;;;-2.01;80.71;101563.59;4987172;28;20399;-47
2022/11/28 05:08:58;;;;;;;17.50;7.80;;;;;;;-1.98;80.52;101565.38;4988166;28;20049;-48
2022/11/28 05:11:24;;;;;;;14.90;7.22;;;;;;;-1.98;80.57;101561.16;5005601;28;20054;-50
2022/11/28 05:13:50;;;;;;;16.27;7.15;;;;;;;-2.34;80.48;101504.28;5011821;28;20030;-51
2022/11/28 05:16:18;;;;;;;15.75;7.65;;;;;;;-2.02;80.43;101564.38;5009790;28;20049;-52
2022/11/28 05:18:44;;;;;;;16.42;7.57;;;;;;;-2.23;80.39;101531.13;4995767;28;20057;-49
2022/11/28 05:21:10;;;;;;;16.17;8.02;;;;;;;-2.02;80.54;101568.59;5000352;28;20082;-50
2022/11/28 05:23:41;;;;;;;18.35;7.25;;;;;;;-2.00;80.59;101572.97;4991376;28;20124;-49
2022/11/28 05:26:09;;;;;;;17.67;7.85;;;;;;;-1.98;80.38;101575.56;4997310;28;20203;-51
2022/11/28 05:28:35;;;;;;;17.35;8.20;;;;;;;-1.92;80.40;101576.75;4994807;28;20149;-48
2022/11/28 05:31:01;;;;;;;18.80;8.65;;;;;;;-1.92;80.53;101579.28;5003772;28;20494;-48
2022/11/28 05:33:29;;;;;;;13.60;6.75;;;;;;;-1.92;80.35;101584.38;5011142;28;20037;-48
2022/11/28 05:35:56;;;;;;;17.85;7.40;;;;;;;-2.04;80.34;101593.16;5010651;28;20053;-51
2022/11/28 05:38:24;;;;;;;13.30;6.82;;;;;;;-2.14;80.71;101589.28;4997539;28;20070;-48
2022/11/28 05:40:50;;;;;;;14.68;6.78;;;;;;;-2.07;80.65;101600.66;5001959;28;20120;-51
2022/11/28 05:43:16;;;;;;;15.95;7.82;;;;;;;-2.13;80.58;101588.50;5010327;28;20050;-48
2022/11/28 05:45:42;;;;;;;18.42;8.48;;;;;;;-2.03;80.56;101602.53;5012415;28;20581;-51
2022/11/28 05:48:08;;;;;;;21.17;8.30;;;;;;;-2.13;80.50;101575.75;4997350;28;20738;-52
2022/11/28 05:50:34;;;;;;;17.67;8.80;;;;;;;-1.97;80.39;101603.69;5000100;28;20042;-49
2022/11/28 05:53:00;;;;;;;23.90;9.15;;;;;;;-1.92;80.50;101609.00;4991302;28;20069;-51
2022/11/28 05:55:26;;;;;;;19.00;8.63;;;;;;;-1.88;80.40;101614.31;4991600;28;20403;-46
2022/11/28 05:57:53;;;;;;;14.30;7.18;;;;;;;-1.90;80.32;101610.84;4997665;28;20060;-47
2022/11/28 06:00:19;;;;;;;14.05;7.20;;;;;;;-2.03;80.36;101585.56;5011915;28;20125;-47
2022/11/28 06:02:47;;;;;;;16.65;7.75;;;;;;;-1.88;80.32;101615.97;5011351;28;20061;-52
2022/11/28 06:05:13;;;;;;;28.77;8.65;;;;;;;-2.07;80.64;101578.59;4994425;28;20089;-48
2022/11/28 06:07:39;;;;;;;18.58;8.50;;;;;;;-2.04;80.23;101580.41;5006599;28;20050;-50
2022/11/28 06:10:06;;;;;;;19.50;7.63;;;;;;;-1.98;80.22;101599.38;4998594;28;20038;-45
2022/11/28 06:12:32;;;;;;;19.10;7.88;;;;;;;-1.86;80.26;101610.16;5009713;28;20509;-48
2022/11/28 06:14:59;;;;;;;20.80;7.93;;;;;;;-1.82;80.24;101616.28;5011666;28;20046;-46
2022/11/28 06:17:26;;;;;;;16.60;7.13;;;;;;;-1.87;80.03;101618.63;5009301;28;20061;-48
2022/11/28 06:19:52;;;;;;;18.75;8.32;;;;;;;-2.02;80.27;101627.22;5011246;28;20533;-48
2022/11/28 06:22:17;;;;;;;20.33;8.68;;;;;;;-2.24;80.59;101587.97;4992574;28;20048;-46
2022/11/28 06:24:43;;;;;;;21.25;9.00;;;;;;;-2.20;80.63;101586.47;5011305;28;20516;-44
2022/11/28 06:27:09;;;;;;;20.60;8.48;;;;;;;-2.09;80.58;101613.31;5009354;28;20128;-46
2022/11/28 06:29:35;;;;;;;22.30;9.95;;;;;;;-2.13;80.99;101617.38;5010357;28;20042;-54
2022/11/28 06:32:01;;;;;;;23.45;9.40;;;;;;;-2.04;80.95;101611.84;5011468;28;20044;-50
2022/11/28 06:34:27;;;;;;;19.05;8.82;;;;;;;-2.23;80.92;101576.13;5009553;28;20038;-45
2022/11/28 06:36:54;;;;;;;22.27;10.02;;;;;;;-1.97;81.16;101625.75;5005784;28;20046;-48
2022/11/28 06:39:20;;;;;;;22.50;9.10;;;;;;;-1.84;81.17;101623.00;5004179;28;20140;-51
2022/11/28 06:41:46;;;;;;;20.33;9.38;;;;;;;-1.71;80.90;101630.41;5009364;28;20046;-51
2022/11/28 06:44:15;;;;;;;18.98;8.98;;;;;;;-1.68;80.64;101622.91;5009171;28;20076;-51
2022/11/28 06:46:42;;;;;;;19.23;8.45;;;;;;;-1.63;80.72;101626.53;5008964;28;20046;-51
2022/11/28 06:49:11;;;;;;;22.33;9.30;;;;;;;-1.62;80.35;101612.09;5010493;28;20092;-53
2022/11/28 06:51:38;;;;;;;21.20;9.18;;;;;;;-1.66;80.30;101590.69;5011764;28;20124;-52
2022/11/28 06:54:04;;;;;;;22.38;10.10;;;;;;;-1.39;80.06;101621.66;4990988;28;20595;-53
2022/11/28 06:56:30;;;;;;;15.55;8.00;;;;;;;-1.40;79.91;101625.88;5004840;28;20049;-50
2022/11/28 06:58:58;;;;;;;18.33;8.75;;;;;;;-1.75;79.65;101559.69;4991934;28;20141;-48
2022/11/28 07:01:28;;;;;;;19.75;9.02;;;;;;;-1.37;79.62;101625.16;5007241;28;20088;-50
2022/11/28 07:03:54;;;;;;;17.15;9.00;;;;;;;-1.36;79.73;101629.47;5007460;28;20709;-50
2022/11/28 07:06:22;;;;;;;18.77;9.55;;;;;;;-1.36;79.60;101626.91;5021462;28;20050;-49
2022/11/28 07:08:48;;;;;;;19.67;9.60;;;;;;;-1.32;79.37;101628.78;5003944;28;20037;-53
2022/11/28 07:11:20;;;;;;;17.75;8.52;;;;;;;-1.33;79.22;101634.69;5003552;28;20054;-43
2022/11/28 07:13:46;;;;;;;21.60;9.32;;;;;;;-1.32;79.29;101628.78;4998536;28;20045;-50
2022/11/28 07:16:16;;;;;;;19.23;8.23;;;;;;;-1.31;79.25;101628.00;4997559;28;20064;-54
2022/11/28 07:18:42;;;;;;;13.07;7.07;;;;;;;-1.31;78.99;101638.19;5006882;28;20046;-48
2022/11/28 07:21:08;;;;;;;17.88;8.40;;;;;;;-1.50;78.88;101627.94;5000214;28;20042;-52
2022/11/28 07:23:34;;;;;;;15.82;7.78;;;;;;;-1.39;79.11;101634.41;4988923;28;20050;-52
2022/11/28 07:26:02;;;;;;;20.20;8.80;;;;;;;-1.29;79.09;101640.00;5002403;28;20080;-50
2022/11/28 07:28:30;;;;;;;14.60;7.93;;;;;;;-1.25;78.75;101635.88;4974561;28;20058;-53
2022/11/28 07:31:14;;;;;;;16.80;7.70;;;;;;;-1.26;78.52;101633.28;5006629;28;20086;-49
2022/11/28 07:33:42;;;;;;;17.65;7.55;;;;;;;-1.21;78.69;101636.91;5002798;28;20481;-53
2022/11/28 07:36:13;;;;;;;16.45;7.50;;;;;;;-1.21;78.38;101629.25;5000722;28;20549;-49
2022/11/28 07:38:39;;;;;;;16.08;7.78;;;;;;;-1.17;78.18;101641.34;5018046;28;20052;-48
2022/11/28 07:41:10;;;;;;;19.48;7.85;;;;;;;-1.07;78.30;101636.72;5003130;28;20117;-50
2022/11/28 07:43:37;;;;;;;16.38;8.23;;;;;;;-1.00;77.77;101638.72;5034197;28;20041;-51
2022/11/28 07:46:04;;;;;;;20.02;9.05;;;;;;;-0.94;77.33;101641.53;4990310;28;20077;-48
2022/11/28 07:48:30;;;;;;;14.45;7.38;;;;;;;-0.87;77.30;101652.88;4994182;28;20041;-51
2022/11/28 07:51:04;;;;;;;19.05;9.20;;;;;;;-0.96;76.93;101643.16;5011543;28;20053;-48
2022/11/28 07:53:29;;;;;;;19.70;9.07;;;;;;;-0.88;76.90;101644.34;5009235;28;20046;-49
2022/11/28 07:55:55;;;;;;;16.02;7.72;;;;;;;-0.87;77.06;101641.00;5004950;28;20061;-46
2022/11/28 07:58:21;;;;;;;20.83;7.47;;;;;;;-0.93;76.81;101644.94;5008562;28;20072;-52
2022/11/28 08:00:48;;;;;;;15.98;6.53;;;;;;;-1.00;76.31;101646.41;5004702;28;20053;-51
2022/11/28 08:03:13;;;;;;;11.65;5.80;;;;;;;-1.13;76.30;101640.66;5006442;28;20053;-49
2022/11/28 08:05:48;;;;;;;14.50;7.20;;;;;;;-1.22;76.03;101653.03;5001645;28;20064;-56
2022/11/28 08:08:17;;;;;;;13.60;6.93;;;;;;;-1.16;76.13;101658.41;5003318;28;20073;-50
2022/11/28 08:10:43;;;;;;;13.13;6.60;;;;;;;-1.10;75.89;101654.44;4983639;28;20045;-47
2022/11/28 08:13:11;;;;;;;16.60;7.38;;;;;;;-1.19;75.70;101655.69;4993885;28;20104;-51
2022/11/28 08:15:39;;;;;;;16.48;8.18;;;;;;;-1.15;76.00;101655.06;5002945;28;20136;-50
2022/11/28 08:18:05;;;;;;;22.25;8.40;;;;;;;-1.11;75.82;101665.47;5006418;28;20428;-48
2022/11/28 08:20:31;;;;;;;17.88;7.95;;;;;;;-1.23;75.76;101666.59;4994818;28;20049;-49
2022/11/28 08:22:57;;;;;;;18.27;7.78;;;;;;;-1.16;76.11;101661.84;4995354;28;20046;-50
2022/11/28 08:25:23;;;;;;;18.92;8.30;;;;;;;-1.14;75.96;101669.53;4989618;28;20540;-54
2022/11/28 08:27:49;;;;;;;19.52;8.60;;;;;;;-1.18;76.00;101663.44;4989658;28;20074;-51
2022/11/28 08:30:15;;;;;;;19.63;8.07;;;;;;;-1.20;76.04;101670.13;5005647;28;20063;-52
2022/11/28 08:32:42;;;;;;;17.58;6.65;;;;;;;-1.26;76.11;101675.00;5005464;28;20050;-50
2022/11/28 08:35:08;;;;;;;15.88;8.10;;;;;;;-1.27;76.11;101667.25;5005908;28;20540;-50
2022/11/28 08:37:33;;;;;;;15.65;7.35;;;;;;;-1.20;75.98;101669.28;5008238;28;20045;-49
2022/11/28 08:39:59;;;;;;;18.40;7.97;;;;;;;-1.24;75.90;101668.25;4983098;28;20045;-50
2022/11/28 08:42:27;;;;;;;15.93;7.60;;;;;;;-1.17;75.79;101662.63;4980149;28;20049;-53
2022/11/28 08:44:53;;;;;;;16.52;7.35;;;;;;;-1.21;75.78;101675.19;4982810;28;20077;-54
2022/11/28 08:47:19;;;;;;;18.30;7.55;;;;;;;-1.19;75.77;101679.53;4987792;28;20548;-50
2022/11/28 08:49:44;;;;;;;10.75;4.97;;;;;;;-1.18;75.35;101677.88;4984688;28;20058;-52
2022/11/28 08:52:10;;;;;;;16.55;6.47;;;;;;;-1.26;75.44;101680.09;5006722;28;20050;-49
2022/11/28 08:54:36;;;;;;;15.93;7.15;;;;;;;-1.35;75.10;101683.09;4986248;28;20042;-49
2022/11/28 08:57:02;;;;;;;15.27;6.85;;;;;;;-1.41;75.31;101685.34;4992383;28;20403;-50
2022/11/28 08:59:28;;;;;;;16.02;6.97;;;;;;;-1.40;75.37;101688.78;4998177;28;20046;-51
2022/11/28 09:01:55;;;;;;;16.58;7.18;;;;;;;-1.39;75.26;101691.41;4999806;28;20125;-47
2022/11/28 09:04:22;;;;;;;17.73;6.72;;;;;;;-1.35;75.34;101687.31;4990809;28;20053;-47
2022/11/28 09:06:48;;;;;;;12.90;7.07;;;;;;;-1.49;75.25;101686.69;4996417;28;20104;-55
2022/11/28 09:09:14;;;;;;;13.13;5.82;;;;;;;-1.63;75.05;101659.69;4999257;28;20046;-51
2022/11/28 09:11:40;;;;;;;14.40;6.50;;;;;;;-1.65;74.81;101651.06;4998644;28;20048;-51
2022/11/28 09:14:07;;;;;;;14.18;6.90;;;;;;;-1.42;74.99;101683.63;4991236;28;20038;-52
2022/11/28 09:16:33;;;;;;;17.00;7.13;;;;;;;-1.48;74.47;101657.84;5007853;28;20041;-51
2022/11/28 09:18:59;;;;;;;19.58;8.30;;;;;;;-1.48;74.70;101662.06;5001573;28;20056;-49
2022/11/28 09:21:26;;;;;;;19.52;6.93;;;;;;;-1.37;74.32;101673.63;5003475;28;20429;-52
2022/11/28 09:23:54;;;;;;;19.65;7.97;;;;;;;-1.42;74.28;101686.19;4999674;28;20046;-48
2022/11/28 09:26:21;;;;;;;16.50;7.32;;;;;;;-1.49;74.50;101675.63;5006134;28;20038;-49
2022/11/28 09:28:47;;;;;;;13.85;6.78;;;;;;;-1.46;74.48;101678.28;5010013;28;20045;-50
2022/11/28 09:31:14;;;;;;;15.63;7.03;;;;;;;-1.44;74.38;101676.69;5001263;28;20113;-48
2022/11/28 09:33:41;;;;;;;12.93;6.30;;;;;;;-1.67;74.25;101652.66;4973489;28;20095;-49
2022/11/28 09:36:11;;;;;;;15.07;7.68;;;;;;;-1.71;74.23;101668.63;4998920;28;20394;-46
2022/11/28 09:38:37;;;;;;;14.35;6.55;;;;;;;-1.54;74.40;101677.97;4995915;28;20042;-47
2022/11/28 09:41:29;;;;;;;14.02;7.00;;;;;;;-1.67;74.48;101657.78;5007778;28;20038;-49
2022/11/28 09:43:59;;;;;;;12.35;5.65;;;;;;;-1.53;74.25;101682.25;5002828;28;20144;-48
2022/11/28 09:46:28;;;;;;;12.57;6.60;;;;;;;-1.53;74.06;101687.34;5001402;28;20042;-48
2022/11/28 09:48:57;;;;;;;15.20;7.35;;;;;;;-1.50;74.04;101687.50;4999248;28;20161;-50
2022/11/28 09:51:45;;;;;;;13.82;7.47;;;;;;;-1.47;73.91;101686.78;4995692;28;20046;-49
2022/11/28 09:54:14;;;;;;;17.55;6.90;;;;;;;-1.44;73.91;101690.31;5004550;28;20066;-49
2022/11/28 09:56:40;;;;;;;17.33;7.30;;;;;;;-1.61;74.22;101667.38;5006484;28;20115;-50
2022/11/28 09:59:36;;;;;;;14.02;6.55;;;;;;;-1.48;74.05;101696.09;4975280;28;20038;-49
2022/11/28 10:02:29;;;;;;;14.38;6.75;;;;;;;-1.60;73.99;101698.06;4992410;28;20489;-49
2022/11/28 10:04:58;;;;;;;14.65;6.75;;;;;;;-1.66;73.96;101695.22;5001131;28;20083;-47
2022/11/28 10:08:12;;;;;;;19.55;7.75;;;;;;;-1.63;74.17;101697.94;5008957;28;20394;-48
2022/11/28 10:11:01;;;;;;;12.40;5.85;;;;;;;-1.65;74.03;101693.56;5012695;28;20084;-48
2022/11/28 10:14:04;;;;;;;13.40;5.53;;;;;;;-1.67;74.04;101692.63;5009837;28;20030;-51
2022/11/28 10:16:57;;;;;;;14.25;6.22;;;;;;;-1.84;74.13;101692.69;5009369;28;20045;-52
2022/11/28 10:19:35;;;;;;;13.55;6.43;;;;;;;-1.72;74.22;101685.63;5006568;28;20038;-50
2022/11/28 10:22:04;;;;;;;15.27;6.70;;;;;;;-1.78;74.25;101653.88;5007431;28;20095;-48
2022/11/28 10:24:37;;;;;;;10.68;5.07;;;;;;;-1.57;73.67;101688.00;5031109;28;20060;-47
2022/11/28 10:27:11;;;;;;;12.27;5.50;;;;;;;-1.88;73.58;101651.66;5019843;28;20050;-52
2022/11/28 10:29:45;;;;;;;10.05;5.35;;;;;;;-1.65;73.57;101683.34;4997318;28;20038;-47
2022/11/28 10:32:17;;;;;;;10.52;5.32;;;;;;;-1.74;73.48;101684.69;5009463;28;20046;-52
2022/11/28 10:34:59;;;;;;;12.25;5.82;;;;;;;-1.91;73.50;101651.53;4999810;28;20038;-45
2022/11/28 10:37:32;;;;;;;13.43;5.65;;;;;;;-1.75;73.53;101676.97;5004599;28;20124;-46
2022/11/28 10:40:15;;;;;;;11.95;6.53;;;;;;;-1.68;73.46;101691.75;5008675;28;20132;-52
2022/11/28 10:42:57;;;;;;;13.93;6.22;;;;;;;-1.73;73.32;101676.22;5002862;28;20048;-50
2022/11/28 10:45:28;;;;;;;13.35;7.05;;;;;;;-1.69;73.24;101684.03;4963743;28;20057;-50
2022/11/28 10:48:29;;;;;;;13.32;7.30;;;;;;;-1.64;73.16;101690.22;5003896;28;20049;-51
2022/11/28 10:51:10;;;;;;;15.75;7.45;;;;;;;-1.68;73.36;101681.56;5004110;28;20050;-49
2022/11/28 10:53:51;;;;;;;13.15;7.60;;;;;;;-1.68;73.20;101681.56;4985318;28;20057;-49
2022/11/28 10:56:51;;;;;;;13.63;7.53;;;;;;;-1.79;73.18;101681.03;5009174;28;20037;-47
2022/11/28 10:59:22;;;;;;;;;;;;;;;-1.70;73.09;101685.69;5005284;28;20042;-47
2022/11/28 11:01:49;;;;;;;13.55;7.13;;;;;;;-1.83;72.87;101675.69;4999099;28;19917;-49
2022/11/28 11:04:21;;;;;;;16.85;7.40;;;;;;;-1.86;73.22;101673.91;4996520;28;20050;-47
2022/11/28 11:07:13;;;;;;;24.05;8.55;;;;;;;-1.89;73.34;101686.50;4995614;28;20042;-52
2022/11/28 11:09:43;;;;;;;15.20;8.73;;;;;;;-1.86;73.41;101684.09;4998512;28;20037;-50
2022/11/28 11:12:20;;;;;;;;;;;;;;;-1.75;73.51;101682.06;4977433;28;20549;-48
2022/11/28 11:14:46;;;;;;;18.70;8.50;;;;;;;-1.85;72.94;101656.94;4992003;28;19928;-49
2022/11/28 11:17:26;;;;;;;16.45;8.57;;;;;;;-1.60;73.40;101680.22;4992198;28;20039;-51
2022/11/28 11:19:52;;;;;;;15.15;8.48;;;;;;;-1.49;73.12;101686.69;4994082;28;20510;-46
2022/11/28 11:22:24;;;;;;;11.65;6.22;;;;;;;-1.43;73.03;101688.66;5005006;28;20053;-46
2022/11/28 11:25:05;;;;;;;11.93;6.15;;;;;;;-1.41;73.13;101682.81;4985329;28;20379;-50
2022/11/28 11:27:31;;;;;;;11.25;5.88;;;;;;;-1.51;72.56;101667.00;5013445;28;20607;-49
2022/11/28 11:29:58;;;;;;;11.02;5.55;;;;;;;-1.31;72.82;101690.06;4997128;28;20498;-49
2022/11/28 11:32:31;;;;;;;11.18;6.30;;;;;;;-1.30;72.79;101694.38;5000344;28;20136;-47
2022/11/28 11:34:58;;;;;;;13.77;5.57;;;;;;;-1.29;72.79;101691.03;4985475;28;20064;-50